Etusivu
METAR-TAF:

METAR-TAF

Lentoasemat :

Fayette Regional Air Center

La Grange, Texas, Yhdysvallat

Leveyspiiri: 29-54-29N, Pituuspiiri: 096-57-00W, korkeus merenpinnasta: 99 m

Tämänhetkinen sää

Tämä raportti tehtiin 1 tunti ja 16 minuuttia sitten, kello 15.55 UTC
Tuuli 12 kn pohjoisesta/koillisesta puuskistuen 18 kn:hen
Lämpötila 10°C
Kosteus 100%
Ilmanpaine 1020 hPa
Näkyvyys: 11.3 km
Pilvistä 800 ft:n korkeudessa
tihkusadetta

METAR: K3T5 011555Z AUTO 02012G18KT 7SM DZ OVC008 10/10 A3011 RMK AO2 P0003 T01030103

Aika: 11:11 (17:11 UTC)


TAF: puuttuu

Säähavainnot ja -ennusteet yli 4000 lentoasemalta (METAR- ja TAF-raportit).

Käytössä olevat sääasemat on merkitty karttaan keltaisilla ja punaisilla pisteillä.

Aseta hiiri pisteen päälle nähdäksesi sääaseman nimen.

Klikkaa sitten nähdäksesi säähavainnot ja -ennusteet.

Kartan vaihtaminen: klikkaa mustalla rastilla varustettuja vihreitä pisteitä, niin voit zoomata sisään; viivalla varustettua vihreää pistettä, niin voit zoomata ulos tai vihreitä nuolia, niin pääset viereisille kartoille.


METAR-TAF: